createdAt,value
2023-11-14T00:00:20.896Z,99116.42
2023-11-14T00:01:26.533Z,99121.78
2023-11-14T00:02:32.166Z,99127.66
2023-11-14T00:03:37.823Z,99121.87
2023-11-14T00:04:43.743Z,99129.81
2023-11-14T00:05:49.353Z,99123.64
2023-11-14T00:06:54.829Z,99132.48
2023-11-14T00:08:00.421Z,99128.47
2023-11-14T00:09:05.930Z,99134.77
2023-11-14T00:10:11.501Z,99124.55
2023-11-14T00:11:16.965Z,99130.75
2023-11-14T00:12:22.442Z,99130.92
2023-11-14T00:13:29.163Z,99130.83
2023-11-14T00:14:34.700Z,99126.32
2023-11-14T00:15:40.264Z,99124.23
2023-11-14T00:16:46.074Z,99121.55
2023-11-14T00:17:51.951Z,99119.9
2023-11-14T00:18:57.586Z,99134.13
2023-11-14T00:20:03.165Z,99131.55
2023-11-14T00:21:08.764Z,99130.82
2023-11-14T00:22:14.265Z,99137.42
2023-11-14T00:23:19.757Z,99133.41
2023-11-14T00:24:25.196Z,99120.92
2023-11-14T00:25:30.700Z,99126.4
2023-11-14T00:26:36.333Z,99132.16
2023-11-14T00:27:41.792Z,99130.51
2023-11-14T00:28:47.298Z,99129.39
2023-11-14T00:29:52.787Z,99132.97
2023-11-14T00:30:58.313Z,99131.63
2023-11-14T00:32:03.956Z,99134.93
2023-11-14T00:33:09.640Z,99133.8
2023-11-14T00:34:15.161Z,99132.46
2023-11-14T00:35:20.619Z,99134.83
2023-11-14T00:36:26.172Z,99134.83
2023-11-14T00:37:31.820Z,99133.08
2023-11-14T00:38:37.353Z,99132.55
2023-11-14T00:39:42.806Z,99136.97
2023-11-14T00:40:48.348Z,99132.87
2023-11-14T00:41:53.887Z,99136.16
2023-11-14T00:42:59.424Z,99132.64
2023-11-14T00:44:04.979Z,99134.59
2023-11-14T00:45:10.777Z,99124.41
2023-11-14T00:46:16.307Z,99131.11
2023-11-14T00:47:21.912Z,99133.17
2023-11-14T00:48:27.505Z,99139.23
2023-11-14T00:49:33.088Z,99140.98
2023-11-14T00:50:39.209Z,99144.99
2023-11-14T00:51:44.664Z,99138.59
2023-11-14T00:52:50.178Z,99145.97
2023-11-14T00:53:55.688Z,99146.63
2023-11-14T00:55:01.289Z,99146.59
2023-11-14T00:56:07.560Z,99154
2023-11-14T00:57:14.107Z,99148.33
2023-11-14T00:58:19.607Z,99142.36
2023-11-14T00:59:25.108Z,99139.89
2023-11-14T01:00:30.645Z,99140.39
2023-11-14T01:01:36.314Z,99150.28
2023-11-14T01:02:42.333Z,99152.12
2023-11-14T01:03:48.134Z,99152.21
2023-11-14T01:04:53.921Z,99145.02
2023-11-14T01:05:59.557Z,99151.3
2023-11-14T01:07:05.044Z,99151.19
2023-11-14T01:08:10.629Z,99145.34
2023-11-14T01:09:16.144Z,99148.51
2023-11-14T01:10:21.623Z,99153.05
2023-11-14T01:11:27.099Z,99139.36
2023-11-14T01:12:32.540Z,99150.48
2023-11-14T01:13:38.087Z,99147.39
2023-11-14T01:14:43.630Z,99143.59
2023-11-14T01:15:49.209Z,99150.78
2023-11-14T01:16:54.776Z,99148.63
2023-11-14T01:18:00.382Z,99146.86
2023-11-14T01:19:06.079Z,99139.66
2023-11-14T01:20:11.814Z,99142.44
2023-11-14T01:21:17.412Z,99145.11
2023-11-14T01:22:22.984Z,99145.95
2023-11-14T01:23:28.651Z,99145.32
2023-11-14T01:24:34.329Z,99141.08
2023-11-14T01:25:39.843Z,99139.52
2023-11-14T01:26:45.353Z,99130.76
2023-11-14T01:27:50.831Z,99135.18
2023-11-14T01:28:56.484Z,99134.28
2023-11-14T01:30:02.081Z,99139.31
2023-11-14T01:31:07.597Z,99138.16
2023-11-14T01:32:13.626Z,99145.08
2023-11-14T01:33:19.112Z,99143.64
2023-11-14T01:34:24.554Z,99133.75
2023-11-14T01:35:30.023Z,99138.7
2023-11-14T01:36:35.521Z,99134.69
2023-11-14T01:37:41.012Z,99133.14
2023-11-14T01:38:46.558Z,99140.36
2023-11-14T01:39:52.061Z,99139.02
2023-11-14T01:40:57.591Z,99136.43
2023-11-14T01:42:03.149Z,99139.09
2023-11-14T01:43:08.607Z,99142.48
2023-11-14T01:44:14.122Z,99144.84
2023-11-14T01:45:19.665Z,99155.06
2023-11-14T01:46:25.189Z,99146.72
2023-11-14T01:47:31.337Z,99148.37
2023-11-14T01:48:37.072Z,99149.18
2023-11-14T01:49:42.558Z,99154.63
2023-11-14T01:50:48.156Z,99155.15
2023-11-14T01:51:53.654Z,99148.14
2023-11-14T01:52:59.263Z,99154.75
2023-11-14T01:54:04.779Z,99155.33
2023-11-14T01:55:10.268Z,99155.23
2023-11-14T01:56:15.707Z,99153.28
2023-11-14T01:57:21.193Z,99151.86
2023-11-14T01:58:26.625Z,99152.97
2023-11-14T01:59:32.155Z,99156.27
2023-11-14T02:00:37.616Z,99153.09
2023-11-14T02:01:43.145Z,99158.32
2023-11-14T02:02:48.995Z,99151.31
2023-11-14T02:03:54.643Z,99157.69
2023-11-14T02:05:00.248Z,99156.78
2023-11-14T02:06:05.799Z,99160.48
2023-11-14T02:07:13.853Z,99162.55
2023-11-14T02:08:19.507Z,99162.02
2023-11-14T02:09:24.978Z,99157.81
2023-11-14T02:10:30.510Z,99157.81
2023-11-14T02:11:36.030Z,99166.95
2023-11-14T02:12:41.469Z,99164.45
2023-11-14T02:13:47.030Z,99161.69
2023-11-14T02:14:52.605Z,99166.86
2023-11-14T02:15:58.125Z,99165.31
2023-11-14T02:17:03.764Z,99168.83
2023-11-14T02:18:09.405Z,99170.26
2023-11-14T02:19:15.048Z,99169.33
2023-11-14T02:20:20.553Z,99171.77
2023-11-14T02:21:26.052Z,99167.27
2023-11-14T02:22:31.773Z,99173.02
2023-11-14T02:23:37.280Z,99170.87
2023-11-14T02:24:42.753Z,99172.7
2023-11-14T02:25:48.241Z,99171.58
2023-11-14T02:26:53.782Z,99174.84
2023-11-14T02:27:59.292Z,99168.14
2023-11-14T02:29:04.848Z,99165.27
2023-11-14T02:30:10.493Z,99175.47
2023-11-14T02:31:16.112Z,99169.92
2023-11-14T02:32:21.633Z,99174.73
2023-11-14T02:33:27.123Z,99174.33
2023-11-14T02:34:32.608Z,99177.49
2023-11-14T02:35:38.144Z,99174.2
2023-11-14T02:36:43.605Z,99175.05
2023-11-14T02:37:49.184Z,99176.88
2023-11-14T02:38:55.766Z,99179.23
2023-11-14T02:40:01.249Z,99184.91
2023-11-14T02:41:06.929Z,99177.2
2023-11-14T02:42:12.433Z,99179.7
2023-11-14T02:43:17.913Z,99170.02
2023-11-14T02:44:23.377Z,99179.06
2023-11-14T02:45:28.934Z,99181.02
2023-11-14T02:46:34.680Z,99183.25
2023-11-14T02:47:40.473Z,99184.41
2023-11-14T02:48:46.247Z,99180.4
2023-11-14T02:49:51.811Z,99178.13
2023-11-14T02:50:57.362Z,99181.83
2023-11-14T02:52:02.829Z,99180.4
2023-11-14T02:53:08.409Z,99182.23
2023-11-14T02:54:14.058Z,99178.74
2023-11-14T02:55:19.525Z,99180.17
2023-11-14T02:56:24.972Z,99180.17
2023-11-14T02:57:30.426Z,99185.61
2023-11-14T02:58:35.921Z,99182.03
2023-11-14T02:59:41.584Z,99182.65
2023-11-14T03:00:47.249Z,99182.84
2023-11-14T03:01:53.059Z,99186.07
2023-11-14T03:02:58.736Z,99193.89
2023-11-14T03:04:04.469Z,99191.53
2023-11-14T03:05:10.069Z,99185.05
2023-11-14T03:06:15.650Z,99192.87
2023-11-14T03:07:21.175Z,99188.36
2023-11-14T03:08:26.700Z,99201.02
2023-11-14T03:09:32.178Z,99201.11
2023-11-14T03:10:37.687Z,99202.94
2023-11-14T03:11:43.194Z,99197.18
2023-11-14T03:12:48.619Z,99203.38
2023-11-14T03:13:54.256Z,99204.72
2023-11-14T03:14:59.798Z,99201.92
2023-11-14T03:16:05.554Z,99202.04
2023-11-14T03:17:11.131Z,99204.19
2023-11-14T03:18:16.754Z,99210.56
2023-11-14T03:19:22.213Z,99205.42
2023-11-14T03:20:35.838Z,99203.88
2023-11-14T03:21:41.451Z,99201.28
2023-11-14T03:22:46.967Z,99198.92
2023-11-14T03:23:52.489Z,99203.64
2023-11-14T03:24:57.907Z,99209.7
2023-11-14T03:26:03.566Z,99210.95
2023-11-14T03:27:09.227Z,99211.8
2023-11-14T03:28:14.723Z,99210.02
2023-11-14T03:29:20.172Z,99207.25
2023-11-14T03:30:25.811Z,99213.86
2023-11-14T03:31:31.372Z,99216.53
2023-11-14T03:32:37.349Z,99218.98
2023-11-14T03:33:43.065Z,99214.96
2023-11-14T03:34:48.792Z,99221.56
2023-11-14T03:35:54.372Z,99223.22
2023-11-14T03:36:59.999Z,99223.08
2023-11-14T03:38:05.552Z,99227.01
2023-11-14T03:39:11.071Z,99231.34
2023-11-14T03:40:16.531Z,99227.01
2023-11-14T03:41:22.056Z,99231.55
2023-11-14T03:42:27.603Z,99231.11
2023-11-14T03:43:33.244Z,99223.61
2023-11-14T03:44:38.809Z,99227.7
2023-11-14T03:45:44.305Z,99225.15
2023-11-14T03:46:49.911Z,99233.99
2023-11-14T03:47:55.513Z,99229.98
2023-11-14T03:49:01.082Z,99230.82
2023-11-14T03:50:06.874Z,99236.17
2023-11-14T03:51:12.452Z,99231.64
2023-11-14T03:52:17.923Z,99225.76
2023-11-14T03:53:23.404Z,99238.96
2023-11-14T03:54:28.910Z,99235.12
2023-11-14T03:55:34.468Z,99232.45
2023-11-14T03:56:39.993Z,99237.6
2023-11-14T03:57:45.440Z,99240.27
2023-11-14T03:58:50.918Z,99241.7
2023-11-14T03:59:56.385Z,99238.62
2023-11-14T04:01:01.891Z,99246.65
2023-11-14T04:02:07.696Z,99245.31
2023-11-14T04:03:13.349Z,99251.91
2023-11-14T04:04:18.873Z,99251.59
2023-11-14T04:05:24.345Z,99258.28
2023-11-14T04:06:29.846Z,99251.59
2023-11-14T04:07:35.368Z,99256.63
2023-11-14T04:08:40.869Z,99255.7
2023-11-14T04:09:46.332Z,99257.03
2023-11-14T04:10:51.849Z,99262.88
2023-11-14T04:11:57.436Z,99256.19
2023-11-14T04:13:02.941Z,99263.73
2023-11-14T04:14:08.531Z,99261.45
2023-11-14T04:15:14.015Z,99261.28
2023-11-14T04:16:19.552Z,99263.34
2023-11-14T04:17:25.499Z,99263.02
2023-11-14T04:18:31.341Z,99270.44
2023-11-14T04:19:37.013Z,99267.79
2023-11-14T04:20:42.597Z,99274.77
2023-11-14T04:21:48.082Z,99262.64
2023-11-14T04:22:53.636Z,99268.58
2023-11-14T04:23:59.204Z,99264.8
2023-11-14T04:25:04.774Z,99266.45
2023-11-14T04:26:10.475Z,99263.86
2023-11-14T04:27:16.018Z,99274.08
2023-11-14T04:28:21.436Z,99264.63
2023-11-14T04:29:26.903Z,99260.29
2023-11-14T04:30:32.399Z,99263.16
2023-11-14T04:31:38.051Z,99266.86
2023-11-14T04:32:43.850Z,99263.69
2023-11-14T04:33:49.628Z,99269.77
2023-11-14T04:34:55.279Z,99273.46
2023-11-14T04:36:00.796Z,99267.94
2023-11-14T04:37:06.309Z,99268.13
2023-11-14T04:38:11.813Z,99262.7
2023-11-14T04:39:17.411Z,99267.64
2023-11-14T04:40:22.889Z,99264.97
2023-11-14T04:41:28.355Z,99260.42
2023-11-14T04:42:34.007Z,99265.2
2023-11-14T04:43:39.564Z,99271.45
2023-11-14T04:44:45.067Z,99268.77
2023-11-14T04:45:50.577Z,99271.56
2023-11-14T04:46:56.242Z,99276.8
2023-11-14T04:48:01.832Z,99273.63
2023-11-14T04:49:07.428Z,99281.14
2023-11-14T04:50:13.959Z,99273.86
2023-11-14T04:51:19.512Z,99274.59
2023-11-14T04:52:25.026Z,99270.05
2023-11-14T04:53:30.483Z,99283.95
2023-11-14T04:54:35.937Z,99280.34
2023-11-14T04:55:41.438Z,99275.92
2023-11-14T04:56:46.985Z,99282.8
2023-11-14T04:57:52.461Z,99270.66
2023-11-14T04:58:58.084Z,99280.05
2023-11-14T05:00:03.842Z,99282.33
2023-11-14T05:01:09.493Z,99281.3
2023-11-14T05:02:15.160Z,99279.88
2023-11-14T05:03:20.973Z,99279.44
2023-11-14T05:04:26.575Z,99285.73
2023-11-14T05:05:32.017Z,99291.63
2023-11-14T05:06:37.516Z,99289.91
2023-11-14T05:07:43.026Z,99288.34
2023-11-14T05:08:48.552Z,99281.85
2023-11-14T05:09:53.990Z,99280.83
2023-11-14T05:10:59.653Z,99280.83
2023-11-14T05:12:05.226Z,99281.23
2023-11-14T05:13:10.660Z,99277.14
2023-11-14T05:14:16.201Z,99271.98
2023-11-14T05:15:21.697Z,99276.58
2023-11-14T05:16:27.279Z,99275.38
2023-11-14T05:17:33.105Z,99281.78
2023-11-14T05:18:38.931Z,99280.23
2023-11-14T05:19:48.689Z,99281.71
2023-11-14T05:20:54.480Z,99274.81
2023-11-14T05:21:59.939Z,99276.78
2023-11-14T05:23:05.476Z,99282.45
2023-11-14T05:24:11.000Z,99284.52
2023-11-14T05:25:16.568Z,99283.8
2023-11-14T05:26:21.997Z,99281.12
2023-11-14T05:27:27.488Z,99284.64
2023-11-14T05:28:32.992Z,99285.55
2023-11-14T05:29:39.376Z,99279.08
2023-11-14T05:30:45.084Z,99281.67
2023-11-14T05:31:50.642Z,99275.06
2023-11-14T05:32:56.206Z,99278.46
2023-11-14T05:34:01.782Z,99279.22
2023-11-14T05:35:07.425Z,99280.03
2023-11-14T05:36:12.959Z,99290.13
2023-11-14T05:37:18.451Z,99281.19
2023-11-14T05:38:23.918Z,99278.39
2023-11-14T05:39:29.439Z,99281.07
2023-11-14T05:40:35.265Z,99284.69
2023-11-14T05:41:41.714Z,99292.54
2023-11-14T05:42:47.169Z,99287.27
2023-11-14T05:43:52.663Z,99293.56
2023-11-14T05:44:58.205Z,99292.8
2023-11-14T05:46:03.741Z,99300.84
2023-11-14T05:47:09.421Z,99297.76
2023-11-14T05:48:17.400Z,99296.94
2023-11-14T05:49:24.646Z,99298.38
2023-11-14T05:50:30.139Z,99291.45
2023-11-14T05:51:35.606Z,99293.72
2023-11-14T05:52:41.216Z,99293.31
2023-11-14T05:53:46.754Z,99292.06
2023-11-14T05:54:52.176Z,99304.61
2023-11-14T05:55:57.680Z,99306.97
2023-11-14T05:57:03.278Z,99308.11
2023-11-14T05:58:08.810Z,99305.92
2023-11-14T05:59:14.298Z,99304.98
2023-11-14T06:00:19.826Z,99304.8
2023-11-14T06:01:25.277Z,99304.88
2023-11-14T06:02:30.793Z,99304.88
2023-11-14T06:03:36.567Z,99304.97
2023-11-14T06:04:42.462Z,99305.06
2023-11-14T06:05:48.180Z,99316.09
2023-11-14T06:06:53.666Z,99302.92
2023-11-14T06:07:59.120Z,99299.52
2023-11-14T06:09:04.752Z,99310.64
2023-11-14T06:10:10.269Z,99308.37
2023-11-14T06:11:18.458Z,99313.23
2023-11-14T06:12:24.013Z,99308.28
2023-11-14T06:13:29.630Z,99312.7
2023-11-14T06:14:35.090Z,99305.29
2023-11-14T06:15:40.757Z,99309.83
2023-11-14T06:16:46.378Z,99306.6
2023-11-14T06:17:52.015Z,99307.01
2023-11-14T06:18:57.514Z,99307.01
2023-11-14T06:20:03.102Z,99307.53
2023-11-14T06:21:08.669Z,99307.71
2023-11-14T06:22:14.095Z,99311.84
2023-11-14T06:23:19.777Z,99326.34
2023-11-14T06:24:25.379Z,99330.63
2023-11-14T06:25:30.840Z,99329.37
2023-11-14T06:26:36.388Z,99322.27
2023-11-14T06:27:41.871Z,99322.85
2023-11-14T06:28:47.389Z,99330.88
2023-11-14T06:29:52.899Z,99331
2023-11-14T06:30:58.363Z,99329.03
2023-11-14T06:32:03.996Z,99336.5
2023-11-14T06:33:09.659Z,99333.59
2023-11-14T06:34:15.268Z,99334.44
2023-11-14T06:35:20.892Z,99336.88
2023-11-14T06:36:26.376Z,99323.5
2023-11-14T06:37:31.875Z,99328.42
2023-11-14T06:38:37.339Z,99323.24
2023-11-14T06:39:42.881Z,99327.14
2023-11-14T06:40:48.506Z,99321.58
2023-11-14T06:41:54.066Z,99319.61
2023-11-14T06:42:59.596Z,99321.47
2023-11-14T06:44:05.183Z,99335.75
2023-11-14T06:45:10.714Z,99332.29
2023-11-14T06:46:16.276Z,99339.13
2023-11-14T06:47:21.874Z,99337.27
2023-11-14T06:48:27.429Z,99335.75
2023-11-14T06:49:32.906Z,99337.91
2023-11-14T06:50:45.774Z,99333.27
2023-11-14T06:51:54.995Z,99327.11
2023-11-14T06:53:00.497Z,99326.91
2023-11-14T06:54:06.083Z,99330.74
2023-11-14T06:55:11.581Z,99331.77
2023-11-14T06:56:17.158Z,99335.89
2023-11-14T06:57:22.701Z,99334.55
2023-11-14T06:58:28.214Z,99331.06
2023-11-14T06:59:33.661Z,99329.29
2023-11-14T07:00:39.125Z,99327.45
2023-11-14T07:01:44.801Z,99330.05
2023-11-14T07:02:50.700Z,99332.72
2023-11-14T07:03:56.455Z,99335.28
2023-11-14T07:05:02.114Z,99327.45
2023-11-14T07:06:07.752Z,99340.23
2023-11-14T07:07:13.405Z,99333.36
2023-11-14T07:08:18.936Z,99331.41
2023-11-14T07:09:24.540Z,99333.88
2023-11-14T07:10:29.975Z,99337.31
2023-11-14T07:11:35.485Z,99332.31
2023-11-14T07:12:40.969Z,99332.8
2023-11-14T07:13:46.490Z,99336.33
2023-11-14T07:14:52.028Z,99327.86
2023-11-14T07:15:57.816Z,99335.22
2023-11-14T07:17:03.661Z,99335.12
2023-11-14T07:18:09.711Z,99330.7
2023-11-14T07:19:15.464Z,99325.53
2023-11-14T07:20:21.030Z,99325.53
2023-11-14T07:21:26.963Z,99332.75
2023-11-14T07:22:32.493Z,99327.48
2023-11-14T07:23:37.971Z,99330.24
2023-11-14T07:24:43.746Z,99333.77
2023-11-14T07:25:49.252Z,99340.55
2023-11-14T07:26:54.834Z,99338.72
2023-11-14T07:28:00.329Z,99335.11
2023-11-14T07:29:06.105Z,99341.71
2023-11-14T07:30:11.635Z,99339.03
2023-11-14T07:31:17.088Z,99337.17
2023-11-14T07:32:22.602Z,99339.03
2023-11-14T07:33:28.226Z,99341.19
2023-11-14T07:34:33.740Z,99335.52
2023-11-14T07:35:39.384Z,99338.39
2023-11-14T07:36:44.849Z,99337.95
2023-11-14T07:37:50.337Z,99339.18
2023-11-14T07:38:55.862Z,99333.62
2023-11-14T07:40:01.310Z,99333.05
2023-11-14T07:41:06.893Z,99337.95
2023-11-14T07:42:12.518Z,99334.96
2023-11-14T07:43:17.986Z,99337.23
2023-11-14T07:44:23.822Z,99337.44
2023-11-14T07:45:29.516Z,99343.61
2023-11-14T07:46:35.108Z,99336.5
2023-11-14T07:47:40.982Z,99338.86
2023-11-14T07:48:46.753Z,99335.86
2023-11-14T07:49:52.276Z,99329.7
2023-11-14T07:51:00.381Z,99327.6
2023-11-14T07:52:05.824Z,99326.7
2023-11-14T07:53:11.379Z,99324.61
2023-11-14T07:54:16.964Z,99313.78
2023-11-14T07:55:22.482Z,99325.8
2023-11-14T07:56:27.924Z,99331.16
2023-11-14T07:57:33.463Z,99325.28
2023-11-14T07:58:39.058Z,99320.16
2023-11-14T07:59:44.599Z,99326.44
2023-11-14T08:00:50.100Z,99323.65
2023-11-14T08:01:55.627Z,99329.84
2023-11-14T08:03:01.449Z,99333.25
2023-11-14T08:04:07.497Z,99326.15
2023-11-14T08:05:13.522Z,99332.84
2023-11-14T08:06:19.178Z,99329.23
2023-11-14T08:07:24.783Z,99338.52
2023-11-14T08:08:30.542Z,99333.16
2023-11-14T08:09:36.012Z,99332.05
2023-11-14T08:10:41.614Z,99326.27
2023-11-14T08:11:47.089Z,99333.48
2023-11-14T08:12:52.600Z,99331.73
2023-11-14T08:13:58.115Z,99334.91
2023-11-14T08:15:03.616Z,99332.55
2023-11-14T08:16:09.103Z,99339.97
2023-11-14T08:17:14.723Z,99327.52
2023-11-14T08:18:20.346Z,99320.91
2023-11-14T08:19:25.885Z,99330.72
2023-11-14T08:20:31.360Z,99338.75
2023-11-14T08:21:36.895Z,99327.6
2023-11-14T08:22:42.430Z,99336.16
2023-11-14T08:23:48.029Z,99337.58
2023-11-14T08:24:53.713Z,99343.55
2023-11-14T08:25:59.225Z,99329.44
2023-11-14T08:27:04.733Z,99345.59
2023-11-14T08:28:10.207Z,99339.5
2023-11-14T08:29:15.724Z,99343
2023-11-14T08:30:21.338Z,99347.73
2023-11-14T08:31:26.948Z,99345.06
2023-11-14T08:32:32.786Z,99351.03
2023-11-14T08:33:38.299Z,99352.28
2023-11-14T08:34:43.821Z,99345.99
2023-11-14T08:35:49.454Z,99344.16
2023-11-14T08:36:55.098Z,99349.92
2023-11-14T08:38:14.483Z,99342.38
2023-11-14T08:39:30.571Z,99354.95
2023-11-14T08:40:36.080Z,99349.2
2023-11-14T08:41:41.738Z,99339.83
2023-11-14T08:42:47.334Z,99347.02
2023-11-14T08:43:52.837Z,99345.76
2023-11-14T08:44:58.315Z,99340.84
2023-11-14T08:46:03.990Z,99335.05
2023-11-14T08:47:09.686Z,99350.7
2023-11-14T08:48:15.252Z,99343.69
2023-11-14T08:49:20.689Z,99345.5
2023-11-14T08:50:26.442Z,99344.69
2023-11-14T08:51:32.030Z,99345
2023-11-14T08:52:37.706Z,99348.09
2023-11-14T08:53:43.214Z,99349.19
2023-11-14T08:54:48.682Z,99334.36
2023-11-14T08:55:54.232Z,99345.67
2023-11-14T08:56:59.779Z,99341.89
2023-11-14T08:58:05.241Z,99348.05
2023-11-14T08:59:10.734Z,99348.27
2023-11-14T09:00:16.354Z,99347.18
2023-11-14T09:01:24.093Z,99351.4
2023-11-14T09:02:29.830Z,99348.2
2023-11-14T09:03:35.723Z,99354.89
2023-11-14T09:04:41.333Z,99353.14
2023-11-14T09:05:46.971Z,99352.5
2023-11-14T09:06:54.324Z,99350.55
2023-11-14T09:07:59.935Z,99341.62
2023-11-14T09:09:05.518Z,99351.69
2023-11-14T09:10:10.983Z,99344.48
2023-11-14T09:11:16.660Z,99346.91
2023-11-14T09:12:22.315Z,99335.48
2023-11-14T09:13:27.823Z,99345.78
2023-11-14T09:14:33.409Z,99351.3
2023-11-14T09:15:38.877Z,99347.41
2023-11-14T09:16:44.557Z,99343.08
2023-11-14T09:17:57.665Z,99345.23
2023-11-14T09:19:04.682Z,99338.63
2023-11-14T09:20:10.338Z,99343.11
2023-11-14T09:21:15.886Z,99350.55
2023-11-14T09:22:21.381Z,99345.35
2023-11-14T09:23:26.932Z,99340.23
2023-11-14T09:24:32.461Z,99323.88
2023-11-14T09:25:38.289Z,99342.5
2023-11-14T09:26:43.767Z,99345.09
2023-11-14T09:27:49.263Z,99338.23
2023-11-14T09:28:54.812Z,99342.44
2023-11-14T09:30:00.362Z,99343.2
2023-11-14T09:31:07.300Z,99347.63
2023-11-14T09:32:14.402Z,99339.5
2023-11-14T09:33:19.904Z,99336.22
2023-11-14T09:34:25.505Z,99326.77
2023-11-14T09:35:31.033Z,99327.58
2023-11-14T09:36:36.531Z,99328.3
2023-11-14T09:37:42.004Z,99341.92
2023-11-14T09:38:47.560Z,99331.62
2023-11-14T09:39:53.036Z,99337.73
2023-11-14T09:40:58.600Z,99322.89
2023-11-14T09:42:04.148Z,99329.09
2023-11-14T09:43:09.702Z,99320.94
2023-11-14T09:44:15.312Z,99326.29
2023-11-14T09:45:20.965Z,99308.39
2023-11-14T09:46:26.543Z,99324.14
2023-11-14T09:47:32.241Z,99320.53
2023-11-14T09:48:37.823Z,99322.8
2023-11-14T09:49:43.596Z,99326
2023-11-14T09:50:49.379Z,99326.91
2023-11-14T09:51:54.810Z,99330.52
2023-11-14T09:53:00.328Z,99322.48
2023-11-14T09:54:05.862Z,99324.84
2023-11-14T09:55:11.344Z,99324.43
2023-11-14T09:56:17.998Z,99316.89
2023-11-14T09:57:23.713Z,99317.42
2023-11-14T09:58:29.200Z,99293.73
2023-11-14T09:59:34.693Z,99311.22
2023-11-14T10:00:40.181Z,99308.66
2023-11-14T10:01:45.882Z,99309.16
2023-11-14T10:02:51.890Z,99318.44
2023-11-14T10:03:57.916Z,99304.53
2023-11-14T10:05:16.244Z,99310.41
2023-11-14T10:06:22.832Z,99311.42
2023-11-14T10:07:28.297Z,99310
2023-11-14T10:08:48.563Z,99308.14
2023-11-14T10:10:05.313Z,99292.69
2023-11-14T10:11:11.025Z,99301.53
2023-11-14T10:12:25.594Z,99293.09
2023-11-14T10:13:31.301Z,99299.38
2023-11-14T10:14:36.796Z,99297.64
2023-11-14T10:15:42.447Z,99299.47
2023-11-14T10:16:48.165Z,99310.17
2023-11-14T10:17:53.977Z,99290.63
2023-11-14T10:18:59.625Z,99292.86
2023-11-14T10:20:06.699Z,99297.72
2023-11-14T10:21:14.818Z,99300.89
2023-11-14T10:22:20.303Z,99278.98
2023-11-14T10:23:37.933Z,99307.59
2023-11-14T10:24:46.120Z,99297.81
2023-11-14T10:25:51.618Z,99286.38
2023-11-14T10:26:57.123Z,99298.52
2023-11-14T10:28:02.931Z,99294.09
2023-11-14T10:29:08.534Z,99300.37
2023-11-14T10:30:14.208Z,99292.02
2023-11-14T10:31:19.848Z,99297.88
2023-11-14T10:32:25.741Z,99285.22
2023-11-14T10:33:31.728Z,99292.43
2023-11-14T10:34:37.384Z,99294.7
2023-11-14T10:35:42.869Z,99283.06
2023-11-14T10:36:48.330Z,99284.46
2023-11-14T10:37:53.912Z,99297.23
2023-11-14T10:38:59.437Z,99301.75
2023-11-14T10:40:04.867Z,99283.01
2023-11-14T10:41:10.492Z,99290.28
2023-11-14T10:42:16.185Z,99297.67
2023-11-14T10:43:21.656Z,99289.44
2023-11-14T10:44:27.337Z,99300.64
2023-11-14T10:45:33.086Z,99303.84
2023-11-14T10:46:38.707Z,99309.69
2023-11-14T10:47:44.387Z,99303.08
2023-11-14T10:48:50.037Z,99295.05
2023-11-14T10:49:55.657Z,99293.19
2023-11-14T10:51:01.138Z,99287.93
2023-11-14T10:52:06.633Z,99295.55
2023-11-14T10:53:12.212Z,99298.95
2023-11-14T10:54:17.885Z,99299.59
2023-11-14T10:55:23.473Z,99295.28
2023-11-14T10:56:29.028Z,99307.36
2023-11-14T10:57:34.788Z,99301.52
2023-11-14T10:58:40.296Z,99283.09
2023-11-14T10:59:45.782Z,99276.72
2023-11-14T11:00:51.394Z,99281.88
2023-11-14T11:01:57.015Z,99294.32
2023-11-14T11:03:02.641Z,99293.63
2023-11-14T11:04:08.358Z,99305.09
2023-11-14T11:05:28.198Z,99291.38
2023-11-14T11:06:37.256Z,99295.08
2023-11-14T11:07:42.694Z,99292.61
2023-11-14T11:08:48.194Z,99283.23
2023-11-14T11:09:53.793Z,99289.11
2023-11-14T11:10:59.629Z,99281.09
2023-11-14T11:12:05.159Z,99283.23
2023-11-14T11:13:10.671Z,99305.09
2023-11-14T11:14:16.178Z,99276.66
2023-11-14T11:15:21.772Z,99295.8
2023-11-14T11:16:27.269Z,99287.38
2023-11-14T11:17:32.845Z,99264.7
2023-11-14T11:18:38.584Z,99298.48
2023-11-14T11:19:44.180Z,99284.25
2023-11-14T11:20:49.769Z,99282.02
2023-11-14T11:21:55.306Z,99294.88
2023-11-14T11:23:00.831Z,99289.61
2023-11-14T11:24:06.500Z,99290.54
2023-11-14T11:25:12.118Z,99277.16
2023-11-14T11:26:21.350Z,99286.84
2023-11-14T11:27:27.113Z,99289.52
2023-11-14T11:28:33.443Z,99298.16
2023-11-14T11:29:40.443Z,99283.44
2023-11-14T11:30:45.944Z,99289.93
2023-11-14T11:31:51.566Z,99283.04
2023-11-14T11:32:57.459Z,99283.13
2023-11-14T11:34:02.946Z,99291.64
2023-11-14T11:35:09.654Z,99278.58
2023-11-14T11:36:18.636Z,99271.89
2023-11-14T11:37:24.132Z,99270.55
2023-11-14T11:38:29.632Z,99269.66
2023-11-14T11:39:35.175Z,99270.06
2023-11-14T11:40:40.655Z,99270.55
2023-11-14T11:41:46.155Z,99272.33
2023-11-14T11:42:51.645Z,99268.31
2023-11-14T11:43:57.227Z,99274.56
2023-11-14T11:45:02.759Z,99268
2023-11-14T11:46:08.363Z,99271.57
2023-11-14T11:47:15.625Z,99256.45
2023-11-14T11:48:21.382Z,99265.61
2023-11-14T11:49:26.933Z,99266.84
2023-11-14T11:50:32.424Z,99265.38
2023-11-14T11:51:37.921Z,99264.53
2023-11-14T11:52:43.393Z,99270.71
2023-11-14T11:53:48.858Z,99275.05
2023-11-14T11:54:54.387Z,99273.97
2023-11-14T11:55:59.899Z,99262.16
2023-11-14T11:57:05.422Z,99269.63
2023-11-14T11:58:11.374Z,99254.09
2023-11-14T11:59:17.079Z,99274.26
2023-11-14T12:00:22.656Z,99252.88
2023-11-14T12:01:28.241Z,99262.06
2023-11-14T12:02:33.906Z,99250.64
2023-11-14T12:03:39.812Z,99249.18
2023-11-14T12:04:46.004Z,99258.98
2023-11-14T12:05:52.166Z,99265.36
2023-11-14T12:06:57.885Z,99254.59
2023-11-14T12:08:03.412Z,99252.67
2023-11-14T12:09:09.071Z,99252.55
2023-11-14T12:10:14.527Z,99247
2023-11-14T12:11:20.073Z,99259.95
2023-11-14T12:12:25.614Z,99261.17
2023-11-14T12:13:31.083Z,99248.2
2023-11-14T12:14:36.593Z,99264.8
2023-11-14T12:15:43.145Z,99265.62
2023-11-14T12:16:48.656Z,99246.77
2023-11-14T12:17:54.316Z,99251.19
2023-11-14T12:19:00.002Z,99245.92
2023-11-14T12:20:13.008Z,99251.08
2023-11-14T12:21:19.183Z,99250.88
2023-11-14T12:22:24.690Z,99264.02
2023-11-14T12:23:30.655Z,99262.27
2023-11-14T12:24:36.965Z,99265.65
2023-11-14T12:25:43.680Z,99239.59
2023-11-14T12:26:49.138Z,99260
2023-11-14T12:27:54.562Z,99250.44
2023-11-14T12:29:00.043Z,99243.14
2023-11-14T12:30:05.553Z,99258.91
2023-11-14T12:31:11.041Z,99242.67
2023-11-14T12:32:16.699Z,99255.94
2023-11-14T12:33:22.342Z,99252.23
2023-11-14T12:34:27.980Z,99252.23
2023-11-14T12:35:33.458Z,99255.35
2023-11-14T12:36:38.937Z,99246.48
2023-11-14T12:37:44.390Z,99242.98
2023-11-14T12:38:49.974Z,99260.88
2023-11-14T12:39:55.476Z,99247
2023-11-14T12:41:00.967Z,99251.59
2023-11-14T12:42:06.591Z,99251.02
2023-11-14T12:43:12.274Z,99248.92
2023-11-14T12:44:17.893Z,99236.56
2023-11-14T12:45:23.467Z,99246.22
2023-11-14T12:46:29.220Z,99231.09
2023-11-14T12:47:34.895Z,99239.13
2023-11-14T12:48:40.397Z,99236.54
2023-11-14T12:49:45.868Z,99236.54
2023-11-14T12:50:51.407Z,99241.08
2023-11-14T12:51:56.921Z,99231.27
2023-11-14T12:53:03.448Z,99247.64
2023-11-14T12:54:09.358Z,99233.05
2023-11-14T12:55:14.813Z,99227.49